Time;durP1;ratioP1;P1;durP2;ratioP2;P2;SDS_P1;SDS_P2;PMS_P1;PMS_P2;Temp;Humidity;BMP_temperature;BMP_pressure;BME280_temperature;BME280_humidity;BME280_pressure;Samples;Min_cycle;Max_cycle;Signal;HPM_P1;HPM_P2
2021/10/10 00:01:19;;;;;;;1.20;0.80;;;;;;;29.51;21.78;94967.09;5060400;28;20067;-50
2021/10/10 00:03:46;;;;;;;0.85;0.70;;;;;;;29.67;21.41;94966.63;5062507;28;20052;-55
2021/10/10 00:06:13;;;;;;;1.42;0.90;;;;;;;29.78;21.49;94961.94;5061234;28;20053;-53
2021/10/10 00:08:40;;;;;;;1.15;0.65;;;;;;;29.34;21.95;94949.81;5056598;28;20053;-54
2021/10/10 00:11:07;;;;;;;1.10;0.90;;;;;;;29.70;21.58;94949.69;5064698;28;20052;-53
2021/10/10 00:13:34;;;;;;;1.27;0.75;;;;;;;29.69;21.48;94951.59;5063228;28;20052;-54
2021/10/10 00:16:02;;;;;;;2.22;0.63;;;;;;;29.72;21.66;94968.91;5067817;28;20048;-53
2021/10/10 00:18:29;;;;;;;0.90;0.70;;;;;;;29.76;21.62;94966.97;5073976;28;20052;-54
2021/10/10 00:20:56;;;;;;;1.27;0.70;;;;;;;30.01;21.10;94970.25;5073349;28;20051;-51
2021/10/10 00:23:23;;;;;;;3.60;0.80;;;;;;;29.43;21.68;94974.41;5068014;28;20049;-52
2021/10/10 00:25:50;;;;;;;1.65;0.70;;;;;;;30.16;20.92;94968.22;5053312;28;20052;-51
2021/10/10 00:28:17;;;;;;;0.80;0.50;;;;;;;29.52;21.32;94970.56;5053974;28;20056;-52
2021/10/10 00:30:44;;;;;;;2.15;0.77;;;;;;;29.71;21.40;94972.75;5056526;28;20052;-54
2021/10/10 00:33:11;;;;;;;1.30;0.90;;;;;;;30.02;21.30;94944.06;5060977;28;20056;-52
2021/10/10 00:35:39;;;;;;;1.08;0.70;;;;;;;30.00;21.24;94952.53;5077799;28;20048;-54
2021/10/10 00:38:06;;;;;;;1.25;0.60;;;;;;;30.34;20.98;94933.03;5076851;28;20053;-52
2021/10/10 00:40:33;;;;;;;1.10;0.60;;;;;;;30.13;21.01;94952.09;5078075;28;20443;-52
2021/10/10 00:43:00;;;;;;;1.17;0.63;;;;;;;30.07;21.02;94947.13;5077689;28;20040;-53
2021/10/10 00:45:27;;;;;;;1.23;0.60;;;;;;;30.52;20.50;94949.81;5056881;28;20045;-56
2021/10/10 00:47:55;;;;;;;1.42;0.77;;;;;;;30.09;20.91;94957.50;5057966;28;20045;-52
2021/10/10 00:50:22;;;;;;;1.35;0.60;;;;;;;30.19;20.76;94951.28;5048039;28;20053;-53
2021/10/10 00:52:50;;;;;;;1.00;0.60;;;;;;;30.15;20.92;94947.81;5065072;28;20463;-55
2021/10/10 00:55:20;;;;;;;1.20;0.70;;;;;;;30.01;21.24;94937.91;5063342;28;20087;-53
2021/10/10 00:57:49;;;;;;;1.10;0.80;;;;;;;30.76;20.22;94939.22;5053728;28;20044;-54
2021/10/10 01:00:18;;;;;;;1.40;0.80;;;;;;;30.58;20.33;94937.44;5062778;28;20049;-54
2021/10/10 01:02:45;;;;;;;1.20;0.93;;;;;;;29.96;21.04;94934.88;5077010;28;20040;-52
2021/10/10 01:05:13;;;;;;;3.10;0.90;;;;;;;30.20;20.63;94930.47;5076639;28;20048;-52
2021/10/10 01:07:40;;;;;;;2.03;0.90;;;;;;;30.20;20.89;94930.47;5057173;28;20060;-57
2021/10/10 01:10:11;;;;;;;1.63;0.80;;;;;;;30.00;20.85;94930.97;5057028;28;20053;-55
2021/10/10 01:12:40;;;;;;;1.10;0.90;;;;;;;29.93;21.07;94939.13;5057056;28;20056;-57
2021/10/10 01:15:08;;;;;;;1.20;0.80;;;;;;;30.01;21.10;94932.53;5074738;28;20048;-53
2021/10/10 01:17:36;;;;;;;1.55;0.90;;;;;;;30.25;20.80;94935.44;5076944;28;20040;-53
2021/10/10 01:20:06;;;;;;;1.25;0.68;;;;;;;30.21;20.83;94923.91;5076894;28;20044;-53
2021/10/10 01:22:33;;;;;;;0.90;0.60;;;;;;;30.06;21.11;94923.25;5077014;28;20052;-56
2021/10/10 01:25:00;;;;;;;1.08;0.75;;;;;;;30.47;20.69;94926.00;5059370;28;20045;-53
2021/10/10 01:27:27;;;;;;;1.60;0.80;;;;;;;30.45;20.67;94917.53;5056136;28;20064;-56
2021/10/10 01:29:54;;;;;;;2.40;0.70;;;;;;;30.85;20.30;94928.69;5056504;28;20049;-55
2021/10/10 01:32:22;;;;;;;1.13;0.70;;;;;;;29.87;21.14;94919.13;5056166;28;20045;-55
2021/10/10 01:34:49;;;;;;;1.02;0.70;;;;;;;30.07;20.76;94930.94;5056146;28;20083;-54
2021/10/10 01:37:17;;;;;;;1.05;0.50;;;;;;;30.27;20.84;94930.41;5056672;28;20049;-54
2021/10/10 01:39:44;;;;;;;1.45;0.82;;;;;;;30.16;20.96;94932.41;5056604;28;20063;-52
2021/10/10 01:42:11;;;;;;;3.17;0.75;;;;;;;30.47;20.61;94926.00;5055426;28;20454;-53
2021/10/10 01:44:38;;;;;;;0.90;0.60;;;;;;;30.15;21.10;94937.03;5056038;28;20045;-55
2021/10/10 01:47:05;;;;;;;1.25;0.85;;;;;;;30.39;20.89;94930.66;5056189;28;20056;-52
2021/10/10 01:49:35;;;;;;;0.93;0.65;;;;;;;30.34;20.82;94933.81;5056564;28;20045;-54
2021/10/10 01:52:02;;;;;;;1.10;0.80;;;;;;;29.89;21.41;94932.97;5056204;28;20363;-52
2021/10/10 01:54:29;;;;;;;0.98;0.68;;;;;;;30.02;21.33;94938.69;5055757;28;20056;-53
2021/10/10 01:57:00;;;;;;;0.90;0.60;;;;;;;30.14;21.10;94942.84;5056324;28;20045;-54
2021/10/10 01:59:27;;;;;;;2.58;0.70;;;;;;;30.28;20.99;94943.50;5056271;28;20049;-52
2021/10/10 02:01:57;;;;;;;1.25;0.63;;;;;;;30.00;21.42;94947.16;5055663;28;20363;-54
2021/10/10 02:04:24;;;;;;;2.60;0.65;;;;;;;30.35;20.85;94946.13;5054619;28;20078;-55
2021/10/10 02:06:51;;;;;;;1.10;0.70;;;;;;;30.17;21.18;94952.81;5056083;28;20052;-53
2021/10/10 02:09:18;;;;;;;0.80;0.60;;;;;;;30.28;20.97;94962.38;5056168;28;20053;-54
2021/10/10 02:11:45;;;;;;;1.13;0.70;;;;;;;30.52;20.89;94966.00;5056113;28;20048;-55
2021/10/10 02:14:12;;;;;;;0.90;0.63;;;;;;;30.42;20.69;94960.69;5057701;28;20049;-53
2021/10/10 02:16:39;;;;;;;0.90;0.57;;;;;;;30.04;21.08;94953.31;5055997;28;20053;-53
2021/10/10 02:19:06;;;;;;;0.80;0.60;;;;;;;30.41;20.75;94949.16;5055910;28;20060;-53
2021/10/10 02:21:33;;;;;;;1.42;0.70;;;;;;;30.20;21.11;94943.97;5055738;28;20518;-55
2021/10/10 02:24:00;;;;;;;2.53;0.70;;;;;;;30.14;20.91;94950.91;5055454;28;20049;-55
2021/10/10 02:26:28;;;;;;;2.10;0.70;;;;;;;30.17;21.20;94950.13;5055541;28;20053;-54
2021/10/10 02:28:55;;;;;;;1.58;0.63;;;;;;;30.35;20.91;94948.06;5055785;28;20041;-53
2021/10/10 02:31:23;;;;;;;1.17;0.52;;;;;;;29.78;21.38;94940.38;5054657;28;20057;-53
2021/10/10 02:33:52;;;;;;;0.88;0.60;;;;;;;30.19;21.28;94937.00;5054168;28;20060;-54
2021/10/10 02:36:19;;;;;;;3.17;0.50;;;;;;;30.11;21.27;94946.31;5055341;28;20052;-54
2021/10/10 02:38:46;;;;;;;1.67;0.80;;;;;;;30.13;21.10;94933.22;5055489;28;20045;-55
2021/10/10 02:41:13;;;;;;;0.98;0.60;;;;;;;29.98;21.44;94930.63;5055412;28;20455;-53
2021/10/10 02:43:40;;;;;;;1.17;0.60;;;;;;;30.17;21.25;94923.16;5055382;28;20048;-53
2021/10/10 02:46:07;;;;;;;1.73;0.63;;;;;;;30.57;20.97;94919.72;5073813;28;20048;-53
2021/10/10 02:48:35;;;;;;;1.10;0.60;;;;;;;30.76;20.88;94918.41;5072941;28;20051;-54
2021/10/10 02:51:02;;;;;;;0.80;0.55;;;;;;;30.37;21.14;94921.44;5055390;28;20060;-54
2021/10/10 02:53:29;;;;;;;0.90;0.50;;;;;;;30.63;20.70;94918.13;5054983;28;20053;-53
2021/10/10 02:55:56;;;;;;;1.20;0.60;;;;;;;30.50;20.75;94914.41;5054666;28;20356;-54
2021/10/10 02:58:23;;;;;;;1.38;0.70;;;;;;;30.84;20.27;94910.97;5055274;28;20055;-53
2021/10/10 03:00:50;;;;;;;1.55;0.60;;;;;;;30.39;20.95;94900.22;5054682;28;20065;-53
2021/10/10 03:03:17;;;;;;;1.20;0.77;;;;;;;30.41;20.82;94910.63;5053835;28;20045;-53
2021/10/10 03:05:44;;;;;;;2.58;0.90;;;;;;;30.37;21.32;94911.44;5069485;28;20332;-54
2021/10/10 03:08:12;;;;;;;1.65;1.02;;;;;;;30.64;20.86;94914.28;5074579;28;20052;-54
2021/10/10 03:10:39;;;;;;;1.77;0.70;;;;;;;30.32;21.11;94929.97;5074941;28;20043;-54
2021/10/10 03:13:06;;;;;;;1.10;0.60;;;;;;;30.28;21.19;94929.25;5074795;28;20056;-54
2021/10/10 03:15:40;;;;;;;1.00;0.50;;;;;;;30.27;21.37;94925.03;5071857;28;20040;-54
2021/10/10 03:18:07;;;;;;;0.75;0.43;;;;;;;29.98;21.49;94932.53;5074653;28;20059;-55
2021/10/10 03:20:34;;;;;;;0.80;0.47;;;;;;;29.97;21.31;94929.09;5074271;28;20044;-53
2021/10/10 03:23:01;;;;;;;1.05;0.60;;;;;;;29.98;21.26;94921.78;5074626;28;20051;-53
2021/10/10 03:25:28;;;;;;;1.40;0.60;;;;;;;30.07;21.01;94925.56;5074046;28;20048;-54
2021/10/10 03:27:56;;;;;;;0.60;0.45;;;;;;;29.86;21.33;94920.28;5074339;28;20085;-56
2021/10/10 03:30:23;;;;;;;0.88;0.55;;;;;;;30.18;20.99;94916.59;5074164;28;20340;-55
2021/10/10 03:32:50;;;;;;;1.15;0.40;;;;;;;30.19;20.86;94920.84;5074212;28;20056;-53
2021/10/10 03:35:17;;;;;;;1.25;0.55;;;;;;;29.99;21.05;94932.16;5073012;28;20067;-52
2021/10/10 03:37:44;;;;;;;0.50;0.40;;;;;;;29.80;21.48;94932.66;5072099;28;20044;-55
2021/10/10 03:40:12;;;;;;;0.73;0.50;;;;;;;30.29;20.88;94926.16;5054402;28;20052;-53
2021/10/10 03:42:39;;;;;;;1.20;0.52;;;;;;;30.04;20.98;94926.34;5054714;28;20351;-52
2021/10/10 03:45:07;;;;;;;1.95;0.70;;;;;;;30.26;20.79;94936.97;5054179;28;20063;-53
2021/10/10 03:47:35;;;;;;;0.70;0.40;;;;;;;30.56;20.54;94947.84;5053507;28;20041;-54
2021/10/10 03:50:03;;;;;;;0.60;0.40;;;;;;;30.06;21.05;94942.91;5054126;28;20049;-53
2021/10/10 03:52:30;;;;;;;0.88;0.60;;;;;;;30.50;20.64;94935.97;5054105;28;20052;-54
2021/10/10 03:57:43;;;;;;;1.40;0.30;;;;;;;29.97;21.21;94942.56;5054055;28;20059;-54
2021/10/10 04:00:12;;;;;;;0.68;0.50;;;;;;;30.14;21.15;94950.91;5053017;28;20557;-53
2021/10/10 04:02:41;;;;;;;0.60;0.30;;;;;;;30.41;20.90;94932.97;5054140;28;20053;-55
2021/10/10 04:07:48;;;;;;;0.60;0.40;;;;;;;30.49;20.75;94934.44;5073953;28;20052;-53
2021/10/10 04:10:16;;;;;;;1.20;0.50;;;;;;;30.16;21.02;94940.50;5074035;28;20431;-53
2021/10/10 04:12:44;;;;;;;0.70;0.40;;;;;;;29.94;21.34;94932.56;5056251;28;20044;-55
2021/10/10 04:15:12;;;;;;;0.70;0.40;;;;;;;30.49;20.64;94937.16;5073370;28;20363;-53
2021/10/10 04:17:40;;;;;;;0.93;0.40;;;;;;;30.03;21.05;94930.22;5074045;28;20055;-54
2021/10/10 04:20:10;;;;;;;0.90;0.47;;;;;;;30.34;20.71;94927.66;5074037;28;20447;-54
2021/10/10 04:22:37;;;;;;;0.88;0.43;;;;;;;30.51;20.70;94924.03;5074120;28;20053;-56
2021/10/10 04:25:05;;;;;;;0.70;0.45;;;;;;;30.24;21.01;94939.31;5072188;28;20044;-55
2021/10/10 04:27:34;;;;;;;0.65;0.40;;;;;;;30.10;21.03;94939.41;5073082;28;20044;-54
2021/10/10 04:30:04;;;;;;;0.80;0.50;;;;;;;30.20;21.02;94939.34;5073786;28;20490;-61
2021/10/10 04:32:31;;;;;;;0.80;0.40;;;;;;;30.07;20.96;94939.03;5073757;28;20056;-53
2021/10/10 04:34:58;;;;;;;0.60;0.40;;;;;;;30.28;21.00;94931.94;5067608;28;20448;-54
2021/10/10 04:37:25;;;;;;;1.80;0.40;;;;;;;30.59;20.77;94928.16;5053827;28;20044;-54
2021/10/10 04:39:52;;;;;;;0.90;0.40;;;;;;;30.75;20.28;94935.00;5053680;28;20044;-53
2021/10/10 04:42:19;;;;;;;1.13;0.45;;;;;;;30.36;20.57;94938.78;5053758;28;20048;-53
2021/10/10 04:44:46;;;;;;;1.92;0.50;;;;;;;30.30;21.00;94938.47;5052279;28;20045;-53
2021/10/10 04:47:14;;;;;;;1.00;0.57;;;;;;;30.40;21.08;94936.81;5053632;28;20052;-54
2021/10/10 04:49:41;;;;;;;1.65;0.50;;;;;;;30.26;20.87;94937.72;5053631;28;20049;-53
2021/10/10 04:52:08;;;;;;;0.95;0.63;;;;;;;30.45;20.79;94939.13;5053525;28;20052;-52
2021/10/10 04:54:35;;;;;;;0.80;0.68;;;;;;;30.45;20.78;94939.13;5054964;28;20048;-52
2021/10/10 04:57:02;;;;;;;1.00;0.70;;;;;;;30.28;20.85;94929.25;5073235;28;20048;-52
2021/10/10 04:59:29;;;;;;;0.98;0.70;;;;;;;30.62;20.65;94932.78;5073534;28;20053;-54
2021/10/10 05:01:56;;;;;;;1.15;0.75;;;;;;;30.29;21.11;94941.56;5072917;28;20055;-54
2021/10/10 05:04:23;;;;;;;1.27;0.77;;;;;;;30.42;20.73;94939.13;5073406;28;20052;-54
2021/10/10 05:06:50;;;;;;;1.63;0.90;;;;;;;30.32;20.91;94929.97;5056471;28;20060;-54
2021/10/10 05:09:17;;;;;;;1.05;0.80;;;;;;;30.48;20.95;94937.53;5053420;28;20045;-55
2021/10/10 05:11:44;;;;;;;2.65;0.70;;;;;;;30.10;21.27;94942.09;5053260;28;20075;-53
2021/10/10 05:14:11;;;;;;;1.05;0.70;;;;;;;30.40;20.96;94947.63;5052981;28;20332;-53
2021/10/10 05:16:38;;;;;;;1.13;0.77;;;;;;;30.79;20.31;94939.19;5058949;28;20045;-54
2021/10/10 05:19:05;;;;;;;2.25;0.70;;;;;;;30.16;21.17;94927.03;5056517;28;20055;-53
2021/10/10 05:21:32;;;;;;;1.15;0.50;;;;;;;30.26;21.16;94942.38;5057022;28;20049;-53
2021/10/10 05:23:59;;;;;;;1.15;0.75;;;;;;;30.47;20.94;94934.09;5056732;28;20052;-54
2021/10/10 05:26:26;;;;;;;1.60;0.90;;;;;;;30.32;21.01;94932.66;5055839;28;20087;-52
2021/10/10 05:28:53;;;;;;;1.48;0.93;;;;;;;30.49;21.07;94929.06;5056611;28;20052;-54
2021/10/10 05:31:21;;;;;;;1.15;0.82;;;;;;;30.08;21.41;94942.50;5055862;28;20055;-52
2021/10/10 05:33:49;;;;;;;2.40;1.10;;;;;;;30.35;21.15;94938.03;5055584;28;20456;-52
2021/10/10 05:36:16;;;;;;;0.95;0.60;;;;;;;30.67;20.56;94939.69;5056335;28;20063;-53
2021/10/10 05:38:43;;;;;;;1.45;0.95;;;;;;;30.18;21.34;94940.88;5056624;28;20068;-53
2021/10/10 05:41:10;;;;;;;2.00;0.85;;;;;;;30.35;20.88;94934.56;5056649;28;20049;-57
2021/10/10 05:43:37;;;;;;;1.00;0.82;;;;;;;30.30;21.17;94938.47;5055969;28;20053;-53
2021/10/10 05:46:04;;;;;;;1.30;0.70;;;;;;;30.69;20.65;94938.09;5064346;28;20044;-53
2021/10/10 05:48:31;;;;;;;3.20;0.70;;;;;;;30.18;21.28;94951.66;5076500;28;20055;-56
2021/10/10 05:50:58;;;;;;;1.45;0.80;;;;;;;30.15;21.47;94952.44;5068413;28;20048;-54
2021/10/10 05:53:25;;;;;;;1.23;0.80;;;;;;;30.33;21.09;94953.06;5055381;28;20049;-54
2021/10/10 05:55:58;;;;;;;1.38;0.70;;;;;;;30.31;21.35;94950.03;5066573;28;20048;-52
2021/10/10 05:58:27;;;;;;;1.00;0.80;;;;;;;30.66;20.79;94947.00;5076300;28;20055;-53
2021/10/10 06:00:55;;;;;;;1.45;0.70;;;;;;;30.54;21.03;94950.19;5075909;28;20044;-53
2021/10/10 06:03:22;;;;;;;1.20;0.65;;;;;;;30.06;21.64;94955.59;5076157;28;20060;-54
2021/10/10 06:05:49;;;;;;;1.08;0.60;;;;;;;30.18;21.34;94940.88;5075510;28;20363;-54
2021/10/10 06:08:16;;;;;;;2.08;0.75;;;;;;;30.66;20.95;94944.31;5072707;28;20045;-52
2021/10/10 06:10:44;;;;;;;1.52;0.70;;;;;;;30.47;21.05;94958.34;5074821;28;20064;-55
2021/10/10 06:13:11;;;;;;;1.50;0.85;;;;;;;30.35;21.13;94956.13;5058354;28;20052;-53
2021/10/10 06:15:40;;;;;;;1.85;0.95;;;;;;;30.62;20.83;94957.06;5075548;28;20037;-53
2021/10/10 06:18:08;;;;;;;1.40;0.82;;;;;;;30.46;21.02;94962.22;5064755;28;20395;-51
2021/10/10 06:20:36;;;;;;;1.30;0.70;;;;;;;30.48;21.18;94970.69;5055232;28;20056;-54
2021/10/10 06:23:03;;;;;;;0.95;0.70;;;;;;;30.24;21.29;94960.88;5054995;28;20044;-55
2021/10/10 06:25:31;;;;;;;1.30;0.80;;;;;;;30.57;21.27;94957.47;5054788;28;20056;-55
2021/10/10 06:27:58;;;;;;;2.88;1.40;;;;;;;30.57;20.92;94946.69;5054939;28;20045;-52
2021/10/10 06:30:25;;;;;;;1.08;0.70;;;;;;;30.23;21.62;94964.72;5055523;28;20041;-52
2021/10/10 06:32:52;;;;;;;3.53;0.90;;;;;;;30.97;20.81;94953.25;5055387;28;20075;-52
2021/10/10 06:35:19;;;;;;;1.10;0.70;;;;;;;30.79;20.66;94951.91;5056458;28;20053;-53
2021/10/10 06:37:46;;;;;;;1.08;0.80;;;;;;;30.32;21.07;94952.31;5075385;28;20075;-54
2021/10/10 06:40:13;;;;;;;1.60;1.00;;;;;;;30.62;20.89;94945.50;5075486;28;20044;-54
2021/10/10 06:42:40;;;;;;;1.83;0.80;;;;;;;30.39;21.19;94948.78;5074393;28;20059;-54
2021/10/10 06:45:08;;;;;;;1.40;0.80;;;;;;;30.52;20.71;94952.53;5055092;28;20383;-52
2021/10/10 06:47:36;;;;;;;3.42;0.93;;;;;;;30.33;20.98;94947.69;5055074;28;20037;-53
2021/10/10 06:50:04;;;;;;;3.00;0.90;;;;;;;30.33;21.03;94947.69;5055275;28;20075;-56
2021/10/10 06:52:31;;;;;;;1.45;1.10;;;;;;;30.56;21.08;94949.78;5054634;28;20355;-53
2021/10/10 06:54:58;;;;;;;1.75;0.90;;;;;;;30.31;20.93;94950.03;5064636;28;20063;-53
2021/10/10 06:57:29;;;;;;;1.35;0.90;;;;;;;30.60;20.78;94956.72;5074909;28;20052;-54
2021/10/10 07:00:00;;;;;;;2.80;1.00;;;;;;;30.45;20.89;94954.50;5074882;28;20051;-54
2021/10/10 07:02:28;;;;;;;;;;;;;;;30.56;20.75;94955.94;5075290;28;20060;-53
2021/10/10 07:04:56;;;;;;;1.40;0.85;;;;;;;30.42;21.06;94956.06;5075058;28;19916;-53
2021/10/10 07:07:23;;;;;;;1.90;1.10;;;;;;;30.45;20.91;94970.69;5073971;28;20060;-54
2021/10/10 07:09:50;;;;;;;1.80;1.10;;;;;;;30.37;21.13;94959.19;5074879;28;20063;-56
2021/10/10 07:12:18;;;;;;;2.05;1.10;;;;;;;30.21;21.35;94962.44;5074903;28;20055;-53
2021/10/10 07:14:47;;;;;;;1.38;1.10;;;;;;;30.69;20.60;94957.00;5066541;28;20546;-54
2021/10/10 07:17:16;;;;;;;1.45;1.00;;;;;;;30.39;20.96;94956.88;5054648;28;20055;-52
2021/10/10 07:20:01;;;;;;;1.20;0.80;;;;;;;30.33;20.78;94967.31;5054790;28;20061;-54
2021/10/10 07:22:43;;;;;;;1.67;1.08;;;;;;;29.97;21.00;94969.50;5054425;28;20045;-53
2021/10/10 07:25:10;;;;;;;;;;;;;;;30.31;20.73;94963.50;5066002;28;20359;-53
2021/10/10 07:27:42;;;;;;;1.60;1.20;;;;;;;30.34;20.66;94976.19;5074373;28;19923;-55
2021/10/10 07:30:13;;;;;;;3.85;1.20;;;;;;;31.10;20.43;94983.19;5056632;28;20354;-54
2021/10/10 07:32:41;;;;;;;4.40;1.15;;;;;;;32.61;19.06;94985.38;5056813;28;20059;-56
2021/10/10 07:35:10;;;;;;;1.73;1.15;;;;;;;31.35;19.89;94990.25;5059987;28;20045;-59
2021/10/10 07:37:37;;;;;;;1.00;0.82;;;;;;;32.36;19.33;94994.69;5063362;28;20371;-49
2021/10/10 07:40:05;;;;;;;2.40;1.40;;;;;;;31.09;20.80;94987.03;5058401;28;20040;-47
2021/10/10 07:42:32;;;;;;;1.95;1.33;;;;;;;32.08;19.95;94989.69;5046667;28;20052;-50
2021/10/10 07:45:12;;;;;;;1.92;1.27;;;;;;;32.50;18.98;94989.00;5060360;28;20048;-49
2021/10/10 07:50:10;;;;;;;5.15;1.48;;;;;;;33.51;18.33;94990.69;5064387;28;20053;-48
2021/10/10 07:52:37;;;;;;;1.70;1.02;;;;;;;33.85;17.68;94990.41;5063893;28;20359;-51
2021/10/10 07:55:05;;;;;;;4.68;1.48;;;;;;;34.31;17.40;94992.78;5062826;28;20336;-51
2021/10/10 07:57:33;;;;;;;2.60;1.27;;;;;;;34.68;17.20;95001.63;5065774;28;20053;-50
2021/10/10 08:00:00;;;;;;;2.55;1.00;;;;;;;34.73;16.96;95014.66;5062990;28;20487;-47
2021/10/10 08:02:27;;;;;;;2.15;1.20;;;;;;;34.97;17.25;95007.09;5058572;28;20371;-55
2021/10/10 08:04:54;;;;;;;5.00;1.60;;;;;;;34.73;17.67;95006.53;5061262;28;20044;-47
2021/10/10 08:07:21;;;;;;;5.13;2.60;;;;;;;34.82;17.46;95011.34;5065035;28;20045;-54
2021/10/10 08:09:48;;;;;;;5.95;2.70;;;;;;;34.99;17.43;95010.16;5053640;28;20048;-51
2021/10/10 08:12:15;;;;;;;8.02;3.50;;;;;;;34.84;17.60;95007.03;5053194;28;20052;-50
2021/10/10 08:14:42;;;;;;;7.00;3.20;;;;;;;35.00;17.52;95000.06;5059596;28;20044;-44
2021/10/10 08:17:09;;;;;;;5.78;2.55;;;;;;;34.87;17.69;95014.34;5073368;28;20466;-45
2021/10/10 08:19:37;;;;;;;6.90;3.03;;;;;;;35.05;17.55;95010.38;5074144;28;20075;-59
2021/10/10 08:22:04;;;;;;;6.95;2.97;;;;;;;35.06;17.57;95011.91;5056290;28;20056;-47
2021/10/10 08:24:31;;;;;;;5.22;2.75;;;;;;;35.32;17.55;95013.53;5069902;28;20041;-58
2021/10/10 08:26:58;;;;;;;5.00;2.60;;;;;;;35.05;17.76;95002.25;5053540;28;20045;-47
2021/10/10 08:29:25;;;;;;;7.10;3.40;;;;;;;35.35;17.23;95011.94;5053816;28;20052;-46
2021/10/10 08:31:52;;;;;;;7.00;4.28;;;;;;;35.40;17.48;95017.63;5053180;28;20045;-47
2021/10/10 08:34:19;;;;;;;44.40;31.05;;;;;;;35.18;17.02;95008.50;5053230;28;20057;-46
2021/10/10 08:36:46;;;;;;;14.18;10.57;;;;;;;35.24;16.93;94998.63;5053442;28;20079;-42
2021/10/10 08:39:13;;;;;;;10.13;8.48;;;;;;;35.55;16.84;94996.22;5053689;28;20045;-53
2021/10/10 08:41:43;;;;;;;10.45;8.13;;;;;;;35.54;17.07;94992.72;5053785;28;20056;-51
2021/10/10 08:44:16;;;;;;;11.07;9.35;;;;;;;35.62;16.82;94989.81;5051985;28;20071;-47
2021/10/10 08:46:45;;;;;;;10.43;9.40;;;;;;;34.95;17.44;94992.44;5056388;28;20053;-51
2021/10/10 08:49:12;;;;;;;10.70;9.60;;;;;;;34.23;17.96;94988.72;5073268;28;20048;-48
2021/10/10 08:51:39;;;;;;;6.97;6.25;;;;;;;33.81;18.22;94978.81;5056971;28;20048;-47
2021/10/10 08:54:06;;;;;;;7.38;5.95;;;;;;;33.76;18.24;94990.16;5057099;28;20068;-47
2021/10/10 08:56:33;;;;;;;5.90;4.60;;;;;;;33.53;18.49;94975.53;5075770;28;20455;-45
2021/10/10 08:59:02;;;;;;;3.65;3.03;;;;;;;34.26;17.30;94977.00;5077401;28;20048;-45
2021/10/10 09:01:32;;;;;;;4.30;3.13;;;;;;;35.04;16.61;94968.13;5076859;28;20059;-46
2021/10/10 09:03:59;;;;;;;5.65;3.33;;;;;;;35.24;16.53;94972.22;5066667;28;20056;-54
2021/10/10 09:06:26;;;;;;;7.65;3.38;;;;;;;35.45;16.45;94970.88;5056994;28;20049;-47
2021/10/10 09:08:54;;;;;;;6.03;3.05;;;;;;;35.77;15.99;94972.63;5056774;28;20366;-50
2021/10/10 09:11:21;;;;;;;5.05;3.35;;;;;;;36.14;15.40;94960.25;5071404;28;20048;-44
2021/10/10 09:14:01;;;;;;;5.00;4.03;;;;;;;35.41;16.55;94959.34;5076780;28;20056;-50
2021/10/10 09:16:35;;;;;;;5.10;4.10;;;;;;;34.57;17.33;94963.88;5057877;28;20383;-50
2021/10/10 09:19:26;;;;;;;7.68;4.78;;;;;;;33.84;18.05;94961.75;5075479;28;20048;-52
2021/10/10 09:22:01;;;;;;;7.85;5.05;;;;;;;33.24;18.30;94964.50;5057645;28;20128;-41
2021/10/10 09:24:28;;;;;;;7.10;4.63;;;;;;;32.79;18.75;94945.25;5057852;28;20045;-50
2021/10/10 09:26:55;;;;;;;5.40;4.22;;;;;;;32.64;18.81;94960.97;5066029;28;20048;-53
2021/10/10 09:29:53;;;;;;;7.88;4.68;;;;;;;33.06;18.95;94961.38;5065342;28;20056;-52
2021/10/10 09:32:26;;;;;;;8.23;5.70;;;;;;;32.54;19.41;94966.56;5064666;28;20060;-55
2021/10/10 09:34:53;;;;;;;8.10;6.70;;;;;;;33.05;18.64;94966.03;5073379;28;20064;-51
2021/10/10 09:37:26;;;;;;;7.80;7.00;;;;;;;32.75;18.82;94971.59;5070896;28;20447;-50
2021/10/10 09:39:59;;;;;;;6.05;5.45;;;;;;;33.17;18.84;94963.88;5075045;28;20053;-51
2021/10/10 09:42:35;;;;;;;9.90;5.78;;;;;;;32.90;18.83;94964.00;5058842;28;20081;-51
2021/10/10 09:45:20;;;;;;;6.38;5.78;;;;;;;32.72;18.92;94975.13;5073927;28;20048;-50
2021/10/10 09:48:03;;;;;;;6.97;6.25;;;;;;;32.86;19.31;94976.84;5064035;28;20053;-51
2021/10/10 09:50:36;;;;;;;8.75;6.40;;;;;;;31.59;20.29;94970.25;5056024;28;20045;-51
2021/10/10 09:53:08;;;;;;;7.05;6.03;;;;;;;32.24;19.75;94976.28;5055555;28;20060;-56
2021/10/10 09:55:37;;;;;;;8.98;8.07;;;;;;;32.34;19.09;94961.88;5056329;28;20044;-48
2021/10/10 09:58:04;;;;;;;6.22;5.60;;;;;;;31.57;19.83;94972.59;5073573;28;20051;-51
2021/10/10 10:00:34;;;;;;;4.32;3.92;;;;;;;32.83;19.06;94966.84;5064211;28;20044;-52
2021/10/10 10:03:10;;;;;;;4.80;4.03;;;;;;;32.64;19.42;94957.50;5061641;28;20056;-49
2021/10/10 10:05:38;;;;;;;6.38;4.20;;;;;;;32.65;18.79;94959.00;5075573;28;20355;-52
2021/10/10 10:08:05;;;;;;;10.85;7.47;;;;;;;34.87;17.75;94959.25;5061969;28;20460;-49
2021/10/10 10:10:33;;;;;;;6.30;4.95;;;;;;;33.21;18.79;94959.91;5056274;28;20078;-50
2021/10/10 10:13:02;;;;;;;6.95;4.95;;;;;;;32.84;18.75;94963.72;5055938;28;20460;-51
2021/10/10 10:15:34;;;;;;;6.22;4.25;;;;;;;31.81;19.83;94960.72;5056052;28;20045;-52
2021/10/10 10:18:02;;;;;;;7.82;3.80;;;;;;;32.26;19.13;94973.94;5072282;28;20051;-50
2021/10/10 10:20:29;;;;;;;5.18;4.22;;;;;;;32.34;18.89;94972.69;5075967;28;20052;-49
2021/10/10 10:22:57;;;;;;;6.85;5.00;;;;;;;32.90;19.23;94978.31;5066601;28;20047;-51
2021/10/10 10:25:26;;;;;;;7.60;3.60;;;;;;;32.30;19.72;94961.16;5058553;28;20044;-50
2021/10/10 10:27:54;;;;;;;5.28;4.07;;;;;;;32.77;19.31;94969.22;5055531;28;20452;-51
2021/10/10 10:30:23;;;;;;;6.68;3.53;;;;;;;32.43;19.50;94972.91;5055234;28;20049;-51
2021/10/10 10:32:52;;;;;;;6.47;4.95;;;;;;;32.76;19.36;94963.03;5053732;28;20059;-49
2021/10/10 10:35:20;;;;;;;7.30;5.68;;;;;;;33.00;18.99;94971.91;5038034;28;20052;-49
2021/10/10 10:37:53;;;;;;;5.32;4.63;;;;;;;33.18;19.05;94970.81;5069347;28;20048;-51
2021/10/10 10:40:24;;;;;;;4.30;3.85;;;;;;;31.95;19.59;94975.19;5075564;28;20040;-51
2021/10/10 10:42:53;;;;;;;6.68;4.05;;;;;;;32.85;19.06;94965.25;5071094;28;20064;-49
2021/10/10 10:45:23;;;;;;;4.65;3.72;;;;;;;32.24;19.70;94970.88;5055406;28;20036;-49
2021/10/10 10:47:55;;;;;;;5.68;3.90;;;;;;;32.00;19.70;94966.59;5069394;28;20048;-49
2021/10/10 10:50:28;;;;;;;9.15;8.25;;;;;;;32.46;19.35;94972.09;5054202;28;20048;-50
2021/10/10 10:53:03;;;;;;;5.03;4.25;;;;;;;32.50;19.09;94975.47;5059909;28;20070;-52
2021/10/10 10:55:37;;;;;;;3.80;3.30;;;;;;;31.75;19.62;94962.34;5057516;28;20052;-51
2021/10/10 10:58:14;;;;;;;3.35;3.03;;;;;;;32.64;19.05;94960.19;5070665;28;20048;-51
2021/10/10 11:00:49;;;;;;;3.30;2.97;;;;;;;32.37;19.58;94957.56;5074854;28;20061;-49
2021/10/10 11:03:25;;;;;;;3.45;3.08;;;;;;;32.20;19.08;94972.88;5074318;28;20044;-49
2021/10/10 11:05:54;;;;;;;3.83;3.13;;;;;;;32.31;19.24;94954.56;5074019;28;20040;-50
2021/10/10 11:08:29;;;;;;;4.30;3.00;;;;;;;32.62;18.96;94959.84;5074810;28;20040;-52
2021/10/10 11:11:24;;;;;;;3.28;2.95;;;;;;;32.42;19.05;94949.75;5074969;28;20059;-48
2021/10/10 11:13:58;;;;;;;4.25;2.80;;;;;;;32.60;19.08;94937.84;5074331;28;20051;-51
2021/10/10 11:16:29;;;;;;;2.78;2.42;;;;;;;32.30;19.19;94942.22;5074519;28;20048;-50
2021/10/10 11:19:07;;;;;;;3.03;2.53;;;;;;;32.33;19.68;94940.63;5074833;28;20055;-48
2021/10/10 11:21:45;;;;;;;3.25;2.33;;;;;;;32.48;19.22;94931.09;5074735;28;20052;-50
2021/10/10 11:24:17;;;;;;;3.50;2.40;;;;;;;32.76;19.20;94943.34;5060263;28;20064;-50
2021/10/10 11:26:45;;;;;;;4.07;2.80;;;;;;;32.20;19.56;94943.13;5054051;28;20056;-49
2021/10/10 11:29:15;;;;;;;3.85;3.47;;;;;;;32.46;19.25;94938.84;5054631;28;20040;-48
2021/10/10 11:31:44;;;;;;;2.95;2.50;;;;;;;32.34;19.79;94936.75;5053966;28;20119;-50
2021/10/10 11:34:14;;;;;;;4.38;2.38;;;;;;;31.77;20.00;94932.97;5054018;28;20357;-51
2021/10/10 11:36:50;;;;;;;2.33;2.10;;;;;;;31.97;20.07;94935.00;5057335;28;20061;-51
2021/10/10 11:39:19;;;;;;;2.50;2.20;;;;;;;32.32;19.09;94945.28;5056823;28;20082;-49
2021/10/10 11:41:56;;;;;;;3.03;2.60;;;;;;;32.64;19.13;94943.97;5060460;28;20045;-51
2021/10/10 11:44:37;;;;;;;2.80;2.10;;;;;;;32.05;19.65;94942.59;5069088;28;20052;-51
2021/10/10 11:47:07;;;;;;;2.20;2.00;;;;;;;32.44;19.53;94923.03;5073276;28;20052;-49
2021/10/10 11:49:43;;;;;;;2.90;2.00;;;;;;;32.45;19.80;94929.22;5061222;28;20053;-49